Time;durP1;ratioP1;P1;durP2;ratioP2;P2;SDS_P1;SDS_P2;PMS_P1;PMS_P2;Temp;Humidity;BMP_temperature;BMP_pressure;BME280_temperature;BME280_humidity;BME280_pressure;Samples;Min_cycle;Max_cycle;Signal;HPM_P1;HPM_P2
2021/07/09 00:01:48;;;;;;;8.60;7.70;;;16.60;99.90;;;;;;5036192;28;20541;-73
2021/07/09 00:04:15;;;;;;;9.80;8.80;;;16.50;99.90;;;;;;5037585;28;20828;-73
2021/07/09 00:06:42;;;;;;;9.73;8.60;;;16.50;99.90;;;;;;5032044;28;20438;-74
2021/07/09 00:09:08;;;;;;;8.80;7.33;;;16.40;99.90;;;;;;5034619;28;20448;-73
2021/07/09 00:11:38;;;;;;;11.23;8.33;;;16.40;99.90;;;;;;5037564;28;20449;-73
2021/07/09 00:14:09;;;;;;;14.57;9.23;;;16.30;99.90;;;;;;5037319;28;20974;-73
2021/07/09 00:16:37;;;;;;;14.17;10.87;;;16.30;99.90;;;;;;5040437;28;20457;-73
2021/07/09 00:19:04;;;;;;;12.20;9.30;;;16.20;99.90;;;;;;5041095;28;20540;-72
2021/07/09 00:21:31;;;;;;;15.70;9.77;;;16.10;99.90;;;;;;5037847;28;20445;-73
2021/07/09 00:23:58;;;;;;;10.70;9.60;;;16.10;99.90;;;;;;5035935;28;20449;-73
2021/07/09 00:26:24;;;;;;;10.33;9.20;;;16.10;99.90;;;;;;5034157;28;20488;-73
2021/07/09 00:28:49;;;;;;;9.30;8.30;;;16.20;99.90;;;;;;5041294;28;23415;-74
2021/07/09 00:31:15;;;;;;;11.13;9.90;;;16.20;99.90;;;;;;5037627;28;20211;-73
2021/07/09 00:33:41;;;;;;;10.67;9.53;;;16.20;99.90;;;;;;5037567;28;20280;-73
2021/07/09 00:36:06;;;;;;;9.50;8.50;;;16.10;99.90;;;;;;5040674;28;20199;-73
2021/07/09 00:38:32;;;;;;;11.87;8.53;;;16.10;99.90;;;;;;5033114;28;20221;-74
2021/07/09 00:40:58;;;;;;;14.20;8.77;;;16.10;99.90;;;;;;5041063;28;20684;-73
2021/07/09 00:43:23;;;;;;;9.07;8.17;;;16.10;99.90;;;;;;5036926;28;20191;-73
2021/07/09 00:45:49;;;;;;;14.87;9.00;;;16.00;99.90;;;;;;5040002;28;20215;-73
2021/07/09 00:48:15;;;;;;;10.13;8.80;;;16.10;99.90;;;;;;5038279;28;20601;-74
2021/07/09 00:50:41;;;;;;;15.37;11.93;;;16.00;99.90;;;;;;5042259;28;20605;-73
2021/07/09 00:53:07;;;;;;;16.83;12.20;;;16.10;99.90;;;;;;5035645;28;20448;-73
2021/07/09 00:55:33;;;;;;;14.63;11.00;;;16.10;99.90;;;;;;5033516;28;20449;-73
2021/07/09 00:58:00;;;;;;;14.50;12.00;;;16.10;99.90;;;;;;5037230;28;20209;-73
2021/07/09 01:00:27;;;;;;;15.23;11.57;;;16.20;99.90;;;;;;5034936;28;20482;-74
2021/07/09 01:02:54;;;;;;;10.60;9.53;;;16.10;99.90;;;;;;5034129;28;20508;-73
2021/07/09 01:05:19;;;;;;;13.37;11.97;;;16.10;99.90;;;;;;5036616;28;20869;-73
2021/07/09 01:07:45;;;;;;;20.40;15.00;;;16.10;99.90;;;;;;5031459;28;20485;-73
2021/07/09 01:10:16;;;;;;;19.87;14.50;;;16.10;99.90;;;;;;5037185;28;20210;-74
2021/07/09 01:12:43;;;;;;;26.17;15.80;;;16.00;99.90;;;;;;5035981;28;21057;-73
2021/07/09 01:15:11;;;;;;;22.67;15.90;;;16.10;99.90;;;;;;5033556;28;20461;-74
2021/07/09 01:17:38;;;;;;;20.70;15.60;;;16.10;99.90;;;;;;5040756;28;20473;-73
2021/07/09 01:20:10;;;;;;;20.63;15.77;;;16.10;99.90;;;;;;5037392;28;20458;-73
2021/07/09 01:22:38;;;;;;;19.10;16.67;;;16.10;99.90;;;;;;5034945;28;20814;-73
2021/07/09 01:25:11;;;;;;;18.20;15.13;;;16.00;99.90;;;;;;5038346;28;20449;-73
2021/07/09 01:27:38;;;;;;;19.37;14.30;;;16.10;99.90;;;;;;5035003;28;20494;-73
2021/07/09 01:30:07;;;;;;;19.00;15.03;;;16.10;99.90;;;;;;5035329;28;20524;-72
2021/07/09 01:32:32;;;;;;;20.53;14.20;;;16.20;99.90;;;;;;5036520;28;20490;-72
2021/07/09 01:34:58;;;;;;;18.53;15.20;;;16.20;99.90;;;;;;5037511;28;20529;-73
2021/07/09 01:37:24;;;;;;;19.20;14.30;;;16.20;99.90;;;;;;5037943;28;20224;-73
2021/07/09 01:39:49;;;;;;;21.23;15.60;;;16.20;99.90;;;;;;5035658;28;23013;-73
2021/07/09 01:42:15;;;;;;;20.53;15.00;;;16.10;99.90;;;;;;5033639;28;20412;-73
2021/07/09 01:44:42;;;;;;;17.07;13.70;;;16.10;99.90;;;;;;5040448;28;20807;-73
2021/07/09 01:47:08;;;;;;;21.00;14.40;;;16.20;99.90;;;;;;5032305;28;20691;-75
2021/07/09 01:49:54;;;;;;;18.97;13.70;;;16.20;99.90;;;;;;5035014;28;20480;-73
2021/07/09 01:52:20;;;;;;;19.43;13.60;;;16.20;99.90;;;;;;5041367;28;20445;-74
2021/07/09 01:54:46;;;;;;;19.70;15.47;;;16.20;99.90;;;;;;5036598;28;20457;-73
2021/07/09 01:57:12;;;;;;;23.90;14.20;;;16.20;99.90;;;;;;5035031;28;20466;-73
2021/07/09 01:59:39;;;;;;;19.07;14.73;;;16.20;99.90;;;;;;5037022;28;20473;-73
2021/07/09 02:02:05;;;;;;;23.93;16.20;;;16.30;99.90;;;;;;5034253;28;20452;-73
2021/07/09 02:04:31;;;;;;;16.60;12.87;;;16.20;99.90;;;;;;5041842;28;20492;-73
2021/07/09 02:06:57;;;;;;;25.20;13.67;;;16.30;99.90;;;;;;5038037;28;20771;-73
2021/07/09 02:09:22;;;;;;;15.27;12.50;;;16.30;99.90;;;;;;5037495;28;20207;-73
2021/07/09 02:11:48;;;;;;;21.90;13.60;;;16.40;99.90;;;;;;5037373;28;20574;-73
2021/07/09 02:14:13;;;;;;;21.00;12.30;;;16.30;99.90;;;;;;5035405;28;20573;-74
2021/07/09 02:16:40;;;;;;;15.60;12.70;;;16.30;99.90;;;;;;5039520;28;20252;-73
2021/07/09 02:19:06;;;;;;;13.00;11.60;;;16.30;99.90;;;;;;5039615;28;20194;-73
2021/07/09 02:21:33;;;;;;;13.40;12.00;;;16.30;99.90;;;;;;5033273;28;22964;-73
2021/07/09 02:23:59;;;;;;;17.30;12.93;;;16.30;99.90;;;;;;5039268;28;20447;-73
2021/07/09 02:26:25;;;;;;;14.13;11.67;;;16.20;99.90;;;;;;5039809;28;20881;-73
2021/07/09 02:28:51;;;;;;;18.17;14.80;;;16.20;99.90;;;;;;5033847;28;20482;-73
2021/07/09 02:31:16;;;;;;;23.67;16.20;;;16.10;99.90;;;;;;5034823;28;20239;-73
2021/07/09 02:33:42;;;;;;;19.13;15.67;;;16.10;99.90;;;;;;5036341;28;20580;-73
2021/07/09 02:36:08;;;;;;;20.87;16.27;;;16.00;99.90;;;;;;5037123;28;20186;-73
2021/07/09 02:38:33;;;;;;;22.83;16.20;;;16.00;99.90;;;;;;5039273;28;20202;-73
2021/07/09 02:40:59;;;;;;;21.63;16.17;;;16.00;99.90;;;;;;5032298;28;20233;-73
2021/07/09 02:43:25;;;;;;;22.70;15.17;;;16.10;99.90;;;;;;5039490;28;20252;-73
2021/07/09 02:45:50;;;;;;;25.53;14.20;;;16.10;99.90;;;;;;5039306;28;20206;-73
2021/07/09 02:48:17;;;;;;;19.03;14.60;;;16.20;99.90;;;;;;5035891;28;20286;-73
2021/07/09 02:50:43;;;;;;;20.67;15.60;;;16.20;99.90;;;;;;5042274;28;20298;-73
2021/07/09 02:53:09;;;;;;;21.57;15.00;;;16.20;99.90;;;;;;5032301;28;20444;-73
2021/07/09 02:55:35;;;;;;;19.77;15.80;;;16.20;99.90;;;;;;5038731;28;20442;-73
2021/07/09 02:58:01;;;;;;;19.20;14.33;;;16.10;99.90;;;;;;5035132;28;20464;-73
2021/07/09 03:00:26;;;;;;;19.90;13.50;;;16.10;99.90;;;;;;5034005;28;20271;-73
2021/07/09 03:02:53;;;;;;;20.50;13.93;;;16.10;99.90;;;;;;5036783;28;20190;-73
2021/07/09 03:05:19;;;;;;;18.47;13.47;;;16.00;99.90;;;;;;5031831;28;20218;-73
2021/07/09 03:07:45;;;;;;;19.20;15.10;;;16.00;99.90;;;;;;5033215;28;20511;-73
2021/07/09 03:10:11;;;;;;;20.10;13.53;;;16.00;99.90;;;;;;5034751;28;20223;-73
2021/07/09 03:12:38;;;;;;;16.80;13.40;;;16.00;99.90;;;;;;5034097;28;20191;-73
2021/07/09 03:15:07;;;;;;;18.30;12.90;;;16.00;99.90;;;;;;5035624;28;20473;-73
2021/07/09 03:17:33;;;;;;;18.47;13.03;;;15.90;99.90;;;;;;5039191;28;20446;-73
2021/07/09 03:19:58;;;;;;;22.63;14.63;;;16.00;99.90;;;;;;5037928;28;20448;-73
2021/07/09 03:22:24;;;;;;;15.60;12.77;;;16.00;99.90;;;;;;5033883;28;20221;-73
2021/07/09 03:24:50;;;;;;;16.50;13.30;;;16.00;99.90;;;;;;5031569;28;20571;-73
2021/07/09 03:27:15;;;;;;;20.27;12.37;;;16.10;99.90;;;;;;5031313;28;20643;-73
2021/07/09 03:29:41;;;;;;;14.90;11.67;;;16.00;99.90;;;;;;5033061;28;20393;-73
2021/07/09 03:32:07;;;;;;;19.37;11.80;;;15.90;99.90;;;;;;5031006;28;20198;-73
2021/07/09 03:34:32;;;;;;;19.10;11.80;;;15.90;99.90;;;;;;5028228;28;20199;-72
2021/07/09 03:36:58;;;;;;;18.27;11.67;;;15.90;99.90;;;;;;5024620;28;20453;-74
2021/07/09 03:39:24;;;;;;;16.37;12.27;;;15.90;99.90;;;;;;5028334;28;20641;-74
2021/07/09 03:41:50;;;;;;;14.80;12.40;;;16.00;99.90;;;;;;5026233;28;20194;-73
2021/07/09 03:44:15;;;;;;;16.00;11.53;;;15.90;99.90;;;;;;5020936;28;20180;-73
2021/07/09 03:46:41;;;;;;;12.83;10.80;;;15.90;99.90;;;;;;5027393;28;20256;-72
2021/07/09 03:49:07;;;;;;;15.45;11.85;;;15.80;99.90;;;;;;5023892;28;20270;-73
2021/07/09 03:51:35;;;;;;;15.83;11.97;;;15.80;99.90;;;;;;5025651;28;20450;-73
2021/07/09 03:54:00;;;;;;;16.40;11.77;;;15.90;99.90;;;;;;5026583;28;20546;-73
2021/07/09 03:56:29;;;;;;;13.20;11.50;;;15.90;99.90;;;;;;5028747;28;20493;-73
2021/07/09 03:58:56;;;;;;;16.30;12.77;;;15.90;99.90;;;;;;5025894;28;20183;-73
2021/07/09 04:01:22;;;;;;;15.53;11.50;;;16.00;99.90;;;;;;5030010;28;20478;-73
2021/07/09 04:03:48;;;;;;;12.00;10.23;;;16.00;99.90;;;;;;5030574;28;20462;-73
2021/07/09 04:06:13;;;;;;;17.33;12.30;;;16.00;99.90;;;;;;5028962;28;20460;-73
2021/07/09 04:08:39;;;;;;;18.13;14.00;;;15.90;99.90;;;;;;5026950;28;20194;-73
2021/07/09 04:11:05;;;;;;;22.70;13.20;;;15.80;99.90;;;;;;5025936;28;20309;-73
2021/07/09 04:13:30;;;;;;;18.53;13.07;;;15.80;99.90;;;;;;5026254;28;20655;-73
2021/07/09 04:15:56;;;;;;;17.50;13.93;;;15.90;99.90;;;;;;5027628;28;20202;-73
2021/07/09 04:18:22;;;;;;;21.17;14.90;;;15.90;99.90;;;;;;5026070;28;20722;-73
2021/07/09 04:20:48;;;;;;;18.87;13.10;;;15.90;99.90;;;;;;5025484;28;20306;-73
2021/07/09 04:23:13;;;;;;;18.33;12.60;;;15.90;99.90;;;;;;5028729;28;20635;-73
2021/07/09 04:25:39;;;;;;;14.60;12.27;;;16.00;99.90;;;;;;5029631;28;20218;-73
2021/07/09 04:28:05;;;;;;;15.60;12.77;;;16.00;99.90;;;;;;5025033;28;20192;-73
2021/07/09 04:30:31;;;;;;;16.70;13.57;;;16.00;99.90;;;;;;5024302;28;20531;-72
2021/07/09 04:32:57;;;;;;;15.80;12.53;;;16.10;99.90;;;;;;5029436;28;20625;-73
2021/07/09 04:35:22;;;;;;;20.10;12.67;;;16.10;99.90;;;;;;5029797;28;20433;-71
2021/07/09 04:37:48;;;;;;;21.57;12.67;;;16.10;99.90;;;;;;5025000;28;20186;-72
2021/07/09 04:40:15;;;;;;;17.47;13.00;;;16.10;99.90;;;;;;5027170;28;20209;-72
2021/07/09 04:42:42;;;;;;;25.40;16.60;;;16.10;99.90;;;;;;5026852;28;20599;-72
2021/07/09 04:45:08;;;;;;;23.40;17.63;;;16.10;99.90;;;;;;5036013;28;20462;-72
2021/07/09 04:47:34;;;;;;;22.97;17.80;;;16.00;99.90;;;;;;5033779;28;20446;-72
2021/07/09 04:50:00;;;;;;;21.87;18.87;;;16.00;99.90;;;;;;5030680;28;20556;-72
2021/07/09 04:52:26;;;;;;;22.60;16.17;;;16.00;99.90;;;;;;5033290;28;20446;-71
2021/07/09 04:54:51;;;;;;;20.57;16.00;;;16.00;99.90;;;;;;5030293;28;20457;-72
2021/07/09 04:57:17;;;;;;;25.60;17.10;;;16.00;99.90;;;;;;5032581;28;20206;-72
2021/07/09 04:59:42;;;;;;;21.67;15.33;;;16.00;99.90;;;;;;5037404;28;20187;-72
2021/07/09 05:02:08;;;;;;;22.43;17.10;;;16.10;99.90;;;;;;5030978;28;20191;-72
2021/07/09 05:04:34;;;;;;;23.17;16.93;;;16.10;99.90;;;;;;5028230;28;20203;-73
2021/07/09 05:06:59;;;;;;;20.07;15.90;;;16.10;99.90;;;;;;5027016;28;20252;-71
2021/07/09 05:09:25;;;;;;;19.73;16.80;;;16.20;99.90;;;;;;5031764;28;20194;-72
2021/07/09 05:11:51;;;;;;;24.10;17.27;;;16.20;99.90;;;;;;5025016;28;20716;-72
2021/07/09 05:14:17;;;;;;;22.77;18.23;;;16.10;99.90;;;;;;5029576;28;20564;-72
2021/07/09 05:16:43;;;;;;;24.83;19.73;;;16.20;99.90;;;;;;5027007;28;20482;-72
2021/07/09 05:19:09;;;;;;;31.97;21.63;;;16.20;99.90;;;;;;5029823;28;20194;-72
2021/07/09 05:21:35;;;;;;;32.70;20.83;;;16.20;99.90;;;;;;5029289;28;20199;-72
2021/07/09 05:24:05;;;;;;;32.07;22.40;;;16.20;99.90;;;;;;5028132;28;20803;-71
2021/07/09 05:26:33;;;;;;;27.17;21.40;;;16.20;99.90;;;;;;5030891;28;20807;-71
2021/07/09 05:28:58;;;;;;;24.83;20.60;;;16.30;99.90;;;;;;5030489;28;20430;-72
2021/07/09 05:31:24;;;;;;;29.73;22.70;;;16.30;99.90;;;;;;5027106;28;20837;-72
2021/07/09 05:33:50;;;;;;;25.60;21.07;;;16.30;99.90;;;;;;5027606;28;20696;-72
2021/07/09 05:36:15;;;;;;;32.33;21.77;;;16.30;99.90;;;;;;5028032;28;20176;-72
2021/07/09 05:38:41;;;;;;;32.87;22.80;;;16.30;99.90;;;;;;5031269;28;20575;-72
2021/07/09 05:41:07;;;;;;;28.80;22.60;;;16.30;99.90;;;;;;5027070;28;20851;-72
2021/07/09 05:43:32;;;;;;;28.83;22.53;;;16.30;99.90;;;;;;5023029;28;20234;-74
2021/07/09 05:45:58;;;;;;;33.03;26.37;;;16.40;99.90;;;;;;5028682;28;20214;-73
2021/07/09 05:48:24;;;;;;;30.60;22.40;;;16.40;99.90;;;;;;5028645;28;20653;-71
2021/07/09 05:50:49;;;;;;;36.53;25.73;;;16.40;99.90;;;;;;5025726;28;20284;-72
2021/07/09 05:53:15;;;;;;;38.10;27.37;;;16.40;99.90;;;;;;5028143;28;20221;-71
2021/07/09 05:55:41;;;;;;;36.63;28.87;;;16.50;99.90;;;;;;5027832;28;20194;-71
2021/07/09 05:58:06;;;;;;;38.20;28.77;;;16.40;99.90;;;;;;5019752;28;20215;-71
2021/07/09 06:00:35;;;;;;;42.10;31.33;;;16.50;99.90;;;;;;5030235;28;20248;-72
2021/07/09 06:03:01;;;;;;;44.77;32.90;;;16.50;99.90;;;;;;5032743;28;20192;-72
2021/07/09 06:05:26;;;;;;;44.10;32.87;;;16.50;99.90;;;;;;5028184;28;20467;-71
2021/07/09 06:07:52;;;;;;;46.60;32.50;;;16.50;99.90;;;;;;5032462;28;21191;-72
2021/07/09 06:10:19;;;;;;;49.63;35.43;;;16.60;99.90;;;;;;5030316;28;20203;-72
2021/07/09 06:12:45;;;;;;;48.80;34.77;;;16.70;99.90;;;;;;5028751;28;20265;-72
2021/07/09 06:15:11;;;;;;;50.30;35.37;;;16.80;99.90;;;;;;5027950;28;20485;-71
2021/07/09 06:17:37;;;;;;;47.03;34.60;;;16.80;99.90;;;;;;5028972;28;20179;-72
2021/07/09 06:20:05;;;;;;;53.43;36.70;;;16.80;99.90;;;;;;5030658;28;20435;-72
2021/07/09 06:22:31;;;;;;;62.63;42.00;;;16.80;99.90;;;;;;5030076;28;20265;-72
2021/07/09 06:24:57;;;;;;;60.83;40.70;;;16.80;99.90;;;;;;5036500;28;20534;-72
2021/07/09 06:27:23;;;;;;;63.63;40.50;;;16.90;99.90;;;;;;5033129;28;21162;-71
2021/07/09 06:29:48;;;;;;;55.37;39.80;;;16.90;99.90;;;;;;5026634;28;20207;-72
2021/07/09 06:32:14;;;;;;;61.13;37.93;;;17.00;99.90;;;;;;5030348;28;20187;-72
2021/07/09 06:34:39;;;;;;;64.40;43.30;;;17.00;99.90;;;;;;5034620;28;20634;-71
2021/07/09 06:37:05;;;;;;;73.67;46.40;;;17.00;99.90;;;;;;5034478;28;20191;-72
2021/07/09 06:39:31;;;;;;;72.03;47.17;;;17.00;99.90;;;;;;5033353;28;20238;-72
2021/07/09 06:41:56;;;;;;;74.00;46.43;;;17.00;99.90;;;;;;5033405;28;20586;-73
2021/07/09 06:44:22;;;;;;;76.33;48.23;;;17.10;99.90;;;;;;5037141;28;20536;-71
2021/07/09 06:46:48;;;;;;;85.70;53.10;;;17.10;99.90;;;;;;5038975;28;20229;-71
2021/07/09 06:49:15;;;;;;;85.87;53.07;;;17.10;99.90;;;;;;5037024;28;20347;-71
2021/07/09 06:51:40;;;;;;;90.43;56.33;;;17.20;99.90;;;;;;5035242;28;20860;-71
2021/07/09 06:54:06;;;;;;;99.00;59.80;;;17.20;99.90;;;;;;5040690;28;20529;-71
2021/07/09 06:56:31;;;;;;;98.43;58.80;;;17.30;99.90;;;;;;5034152;28;20219;-71
2021/07/09 06:58:58;;;;;;;89.53;57.47;;;17.30;99.90;;;;;;5041705;28;20206;-71
2021/07/09 07:01:23;;;;;;;89.47;58.63;;;17.30;99.90;;;;;;5040930;28;20226;-72
2021/07/09 07:03:49;;;;;;;85.20;55.87;;;17.40;99.90;;;;;;5040510;28;20437;-72
2021/07/09 07:06:15;;;;;;;108.30;57.17;;;17.40;99.90;;;;;;5039740;28;20187;-71
2021/07/09 07:08:40;;;;;;;90.50;53.93;;;17.40;99.90;;;;;;5031863;28;20179;-71
2021/07/09 07:11:07;;;;;;;81.90;51.07;;;17.50;99.90;;;;;;5021468;28;20212;-72
2021/07/09 07:13:32;;;;;;;82.30;49.53;;;17.40;99.90;;;;;;5033199;28;20210;-72
2021/07/09 07:15:59;;;;;;;77.43;51.43;;;17.50;99.90;;;;;;5033538;28;20462;-73
2021/07/09 07:18:24;;;;;;;84.17;51.07;;;17.40;99.90;;;;;;5041646;28;20195;-73
2021/07/09 07:20:51;;;;;;;80.13;50.60;;;17.30;99.90;;;;;;5036308;28;20580;-73
2021/07/09 07:23:18;;;;;;;86.80;50.00;;;17.40;99.90;;;;;;5020279;28;21071;-74
2021/07/09 07:25:45;;;;;;;75.33;49.10;;;17.30;99.90;;;;;;5030497;28;20524;-73
2021/07/09 07:28:13;;;;;;;81.03;48.07;;;17.30;99.90;;;;;;5036159;28;20512;-74
2021/07/09 07:30:40;;;;;;;72.70;47.90;;;17.40;99.90;;;;;;5031251;28;20477;-72
2021/07/09 07:33:05;;;;;;;65.50;45.07;;;17.40;99.90;;;;;;5030028;28;20843;-73
2021/07/09 07:35:31;;;;;;;67.27;43.97;;;17.40;99.90;;;;;;5023721;28;20530;-74
2021/07/09 07:37:58;;;;;;;73.10;45.57;;;17.40;99.90;;;;;;5030899;28;20657;-74
2021/07/09 07:40:24;;;;;;;65.53;41.20;;;17.40;99.90;;;;;;5034291;28;20972;-73
2021/07/09 07:42:50;;;;;;;57.60;41.57;;;17.50;99.90;;;;;;5036533;28;20477;-74
2021/07/09 07:45:16;;;;;;;68.83;41.97;;;17.50;99.90;;;;;;5033381;28;20685;-73
2021/07/09 07:47:42;;;;;;;61.20;41.07;;;17.50;99.90;;;;;;5037239;28;20876;-73
2021/07/09 07:50:09;;;;;;;64.50;43.63;;;17.60;99.90;;;;;;5034532;28;20218;-73
2021/07/09 07:52:36;;;;;;;61.00;41.53;;;17.50;99.90;;;;;;5036578;28;20460;-74
2021/07/09 07:55:03;;;;;;;57.40;39.73;;;17.60;99.90;;;;;;5034544;28;20453;-73
2021/07/09 07:57:28;;;;;;;42.30;32.73;;;17.60;99.90;;;;;;5039156;28;20449;-73
2021/07/09 07:59:54;;;;;;;33.47;25.80;;;17.60;99.90;;;;;;5027419;28;20529;-74
2021/07/09 08:02:19;;;;;;;32.97;26.37;;;17.50;99.90;;;;;;5030329;28;20219;-74
2021/07/09 08:04:47;;;;;;;32.10;25.00;;;17.50;99.90;;;;;;5022251;28;20598;-74
2021/07/09 08:07:14;;;;;;;33.47;25.50;;;17.40;99.90;;;;;;5030925;28;21021;-74
2021/07/09 08:09:40;;;;;;;30.67;24.57;;;17.40;99.90;;;;;;5028468;28;20468;-74
2021/07/09 08:12:07;;;;;;;33.97;26.90;;;17.40;99.90;;;;;;5022305;28;20881;-74
2021/07/09 08:14:33;;;;;;;28.60;22.80;;;17.50;99.90;;;;;;5048975;28;20437;-73
2021/07/09 08:16:59;;;;;;;27.53;21.90;;;17.50;99.90;;;;;;5028971;28;20553;-74
2021/07/09 08:19:25;;;;;;;28.90;21.43;;;17.60;99.90;;;;;;5032730;28;24764;-73
2021/07/09 08:21:50;;;;;;;28.47;21.43;;;17.60;99.90;;;;;;5023144;28;20199;-73
2021/07/09 08:24:18;;;;;;;27.33;21.40;;;17.60;99.90;;;;;;5027968;28;20175;-72
2021/07/09 08:26:44;;;;;;;26.87;20.57;;;17.60;99.90;;;;;;5037032;28;20193;-72
2021/07/09 08:29:10;;;;;;;27.40;22.33;;;17.70;99.90;;;;;;5033663;28;20487;-72
2021/07/09 08:31:36;;;;;;;28.00;20.80;;;17.80;99.90;;;;;;5034096;28;20474;-72
2021/07/09 08:34:02;;;;;;;27.50;21.03;;;17.90;99.90;;;;;;5034592;28;20435;-74
2021/07/09 08:36:27;;;;;;;27.20;22.17;;;17.90;99.90;;;;;;5031932;28;20473;-74
2021/07/09 08:38:53;;;;;;;25.50;20.03;;;17.80;99.90;;;;;;5035295;28;20454;-71
2021/07/09 08:41:20;;;;;;;24.70;19.90;;;17.80;99.90;;;;;;5033659;28;20512;-72
2021/07/09 08:43:46;;;;;;;24.40;20.67;;;17.80;99.90;;;;;;5034874;28;20306;-72
2021/07/09 08:46:15;;;;;;;21.87;18.87;;;17.80;99.90;;;;;;5033203;28;20469;-72
2021/07/09 08:48:42;;;;;;;22.80;18.37;;;17.80;99.90;;;;;;5035339;28;20441;-72
2021/07/09 08:51:09;;;;;;;29.77;19.30;;;17.90;99.90;;;;;;5034301;28;20471;-72
2021/07/09 08:53:35;;;;;;;22.07;18.20;;;18.00;99.90;;;;;;5040404;28;20538;-72
2021/07/09 08:56:01;;;;;;;27.60;18.07;;;18.10;99.90;;;;;;5039979;28;20426;-73
2021/07/09 08:58:27;;;;;;;22.87;18.37;;;18.00;99.90;;;;;;5032894;28;20822;-73
2021/07/09 09:00:54;;;;;;;25.07;18.57;;;18.10;99.90;;;;;;5032960;28;20457;-72
2021/07/09 09:03:25;;;;;;;23.90;19.00;;;18.20;99.90;;;;;;5034093;28;20712;-72
2021/07/09 09:05:59;;;;;;;24.73;19.17;;;18.20;99.90;;;;;;5033490;28;20455;-73
2021/07/09 09:08:24;;;;;;;25.50;19.30;;;18.30;99.90;;;;;;5036675;28;20453;-73
2021/07/09 09:10:53;;;;;;;25.17;21.90;;;18.50;99.90;;;;;;5038114;28;20467;-73
2021/07/09 09:13:23;;;;;;;27.70;23.23;;;18.60;99.90;;;;;;5035011;28;20184;-73
2021/07/09 09:16:10;;;;;;;22.90;19.47;;;18.80;99.90;;;;;;5030510;28;20464;-73
2021/07/09 09:18:45;;;;;;;25.33;19.90;;;19.00;99.90;;;;;;5037851;28;20465;-73
2021/07/09 09:21:16;;;;;;;22.93;20.30;;;19.00;99.90;;;;;;5034673;28;20845;-73
2021/07/09 09:23:47;;;;;;;25.80;20.20;;;19.30;99.90;;;;;;5035049;28;20446;-73
2021/07/09 09:26:13;;;;;;;22.17;19.70;;;19.30;99.90;;;;;;5030254;28;20958;-72
2021/07/09 09:28:40;;;;;;;26.40;23.13;;;19.30;99.90;;;;;;5030645;28;20447;-72
2021/07/09 09:31:07;;;;;;;28.57;23.00;;;19.20;99.90;;;;;;5034615;28;20522;-72
2021/07/09 09:33:36;;;;;;;29.93;26.70;;;19.10;99.90;;;;;;5039490;28;20454;-71
2021/07/09 09:36:07;;;;;;;31.60;26.93;;;18.90;99.90;;;;;;5039526;28;20467;-72
2021/07/09 09:38:33;;;;;;;29.40;26.20;;;18.90;99.90;;;;;;5039603;28;20442;-71
2021/07/09 09:41:00;;;;;;;29.83;26.10;;;18.90;99.90;;;;;;5039604;28;20433;-72
2021/07/09 09:43:28;;;;;;;31.93;26.53;;;19.20;91.60;;;;;;5038609;28;20184;-72
2021/07/09 09:46:08;;;;;;;31.63;27.30;;;19.50;99.90;;;;;;5035781;28;20489;-71
2021/07/09 09:48:53;;;;;;;25.63;22.93;;;19.60;29.70;;;;;;5037298;28;20469;-71
2021/07/09 09:51:26;;;;;;;31.03;25.23;;;19.50;32.20;;;;;;5039007;28;20472;-72
2021/07/09 09:53:54;;;;;;;28.93;25.83;;;19.50;11.90;;;;;;5034850;28;20445;-73
2021/07/09 09:56:50;;;;;;;30.73;26.00;;;19.60;14.60;;;;;;5037041;28;20433;-72
2021/07/09 09:59:18;;;;;;;27.83;25.10;;;19.60;1.00;;;;;;5027989;28;21263;-73
2021/07/09 10:01:50;;;;;;;27.00;23.90;;;19.90;1.00;;;;;;5040080;28;20500;-72
2021/07/09 10:04:16;;;;;;;22.77;18.83;;;20.00;1.00;;;;;;5034957;28;20461;-73
2021/07/09 10:06:45;;;;;;;30.90;21.63;;;20.20;1.00;;;;;;5036858;28;20448;-73
2021/07/09 10:09:13;;;;;;;21.70;19.50;;;20.30;1.00;;;;;;5038565;28;20207;-73
2021/07/09 10:11:40;;;;;;;24.03;19.60;;;20.40;1.00;;;;;;5034829;28;20509;-73
2021/07/09 10:14:21;;;;;;;22.20;19.80;;;20.30;1.00;;;;;;5032309;28;20461;-73
2021/07/09 10:16:48;;;;;;;21.87;19.70;;;20.20;1.00;;;;;;5035929;28;20464;-73
2021/07/09 10:19:41;;;;;;;15.83;14.13;;;20.30;1.00;;;;;;5037204;28;20509;-73
2021/07/09 10:22:08;;;;;;;14.20;12.90;;;20.40;1.00;;;;;;5040434;28;20452;-73
2021/07/09 10:24:35;;;;;;;14.80;13.20;;;20.60;1.00;;;;;;5045086;28;20440;-73
2021/07/09 10:27:02;;;;;;;13.47;12.10;;;20.70;1.00;;;;;;5038144;28;21504;-73
2021/07/09 10:29:33;;;;;;;13.97;12.57;;;20.90;1.00;;;;;;5037922;28;20513;-73
2021/07/09 10:32:01;;;;;;;13.83;12.43;;;21.00;1.00;;;;;;5032540;28;20458;-73
2021/07/09 10:34:30;;;;;;;12.70;11.50;;;21.20;1.00;;;;;;5033674;28;20454;-73
2021/07/09 10:37:01;;;;;;;15.27;12.30;;;21.00;1.00;;;;;;5032763;28;20444;-73
2021/07/09 10:39:30;;;;;;;14.70;13.33;;;20.90;1.00;;;;;;5033662;28;21091;-74
2021/07/09 10:41:56;;;;;;;14.30;12.93;;;21.00;1.00;;;;;;5033760;28;20497;-74
2021/07/09 10:44:22;;;;;;;15.07;13.07;;;21.20;1.00;;;;;;5032366;28;20442;-74
2021/07/09 10:46:48;;;;;;;15.97;12.30;;;21.30;1.00;;;;;;5034146;28;20203;-73
2021/07/09 10:49:53;;;;;;;13.80;11.97;;;21.40;1.00;;;;;;5032923;28;20326;-72
2021/07/09 10:52:54;;;;;;;14.57;12.67;;;21.30;1.00;;;;;;5035888;28;20190;-73
2021/07/09 10:55:26;;;;;;;15.17;13.30;;;21.20;1.00;;;;;;5035951;28;20454;-73
2021/07/09 10:58:07;;;;;;;13.17;11.77;;;21.30;1.00;;;;;;5027790;28;20453;-74
2021/07/09 11:00:45;;;;;;;9.07;8.17;;;21.20;1.00;;;;;;5034197;28;20931;-73
2021/07/09 11:03:20;;;;;;;10.53;8.53;;;21.30;1.00;;;;;;5035753;28;20496;-73
2021/07/09 11:05:46;;;;;;;11.23;9.37;;;21.30;1.00;;;;;;5035106;28;20520;-73
2021/07/09 11:08:30;;;;;;;10.80;9.40;;;21.40;1.00;;;;;;5033050;28;21202;-73
2021/07/09 11:11:16;;;;;;;8.97;8.07;;;21.50;1.00;;;;;;5035685;28;20473;-73
2021/07/09 11:13:42;;;;;;;13.70;9.00;;;21.70;1.00;;;;;;5048017;28;20442;-73
2021/07/09 11:16:16;;;;;;;16.53;8.33;;;21.70;1.00;;;;;;5036459;28;20492;-73
2021/07/09 11:18:53;;;;;;;9.80;8.80;;;21.90;1.00;;;;;;5033729;28;20187;-73
2021/07/09 11:21:30;;;;;;;12.73;8.80;;;22.00;1.00;;;;;;5035351;28;20477;-74
2021/07/09 11:24:02;;;;;;;8.77;6.07;;;22.00;1.00;;;;;;5031277;28;20472;-74
2021/07/09 11:26:36;;;;;;;6.53;5.57;;;21.90;1.00;;;;;;5039261;28;20967;-73
2021/07/09 11:29:40;;;;;;;6.57;5.70;;;21.70;1.00;;;;;;5031378;28;20534;-73
2021/07/09 11:32:17;;;;;;;7.20;4.97;;;21.40;1.00;;;;;;5036611;28;20820;-73
2021/07/09 11:34:44;;;;;;;6.77;5.33;;;21.10;1.00;;;;;;5038648;28;20445;-73
2021/07/09 11:37:10;;;;;;;7.67;4.60;;;21.00;1.00;;;;;;5033561;28;20524;-73
2021/07/09 11:39:46;;;;;;;13.10;5.10;;;20.80;1.00;;;;;;5038321;28;21318;-73
2021/07/09 11:42:20;;;;;;;9.30;5.80;;;20.80;1.00;;;;;;5035378;28;20501;-74
2021/07/09 11:44:55;;;;;;;8.73;5.00;;;20.70;1.00;;;;;;5031975;28;20452;-73
2021/07/09 11:47:27;;;;;;;7.00;5.30;;;20.70;1.00;;;;;;5032749;28;20460;-74
2021/07/09 11:50:03;;;;;;;5.30;4.70;;;20.60;1.00;;;;;;5038110;28;20970;-73
2021/07/09 11:52:34;;;;;;;9.10;4.83;;;20.60;1.00;;;;;;5033569;28;20446;-73
2021/07/09 11:55:06;;;;;;;8.03;6.17;;;20.50;1.00;;;;;;5032445;28;21058;-73
2021/07/09 11:57:35;;;;;;;8.53;5.30;;;20.50;1.00;;;;;;5032664;28;20533;-73
2021/07/09 12:00:21;;;;;;;9.13;6.27;;;20.50;1.00;;;;;;5036353;28;20469;-73
2021/07/09 12:02:48;;;;;;;10.17;6.63;;;20.50;1.00;;;;;;5031150;28;20465;-73
2021/07/09 12:05:16;;;;;;;11.70;5.87;;;20.50;1.00;;;;;;5023996;28;20449;-73
2021/07/09 12:07:45;;;;;;;7.23;5.73;;;20.40;1.00;;;;;;5027874;28;20453;-74
2021/07/09 12:10:15;;;;;;;8.00;5.93;;;20.50;1.00;;;;;;5039317;28;20465;-73
2021/07/09 12:12:51;;;;;;;7.53;5.83;;;20.60;1.00;;;;;;5032828;28;20445;-73
2021/07/09 12:15:18;;;;;;;7.87;6.60;;;20.60;1.00;;;;;;5030386;28;20438;-73
2021/07/09 12:17:47;;;;;;;5.20;4.57;;;20.80;1.00;;;;;;5029968;28;20838;-74
2021/07/09 12:20:21;;;;;;;7.90;5.50;;;20.80;1.00;;;;;;5034004;28;21371;-73
2021/07/09 12:23:00;;;;;;;7.60;5.60;;;20.90;1.00;;;;;;5033208;28;20476;-73
2021/07/09 12:25:31;;;;;;;6.47;5.00;;;21.00;1.00;;;;;;5034773;28;20758;-73
2021/07/09 12:27:59;;;;;;;5.53;5.03;;;20.90;1.00;;;;;;5028680;28;20477;-73
2021/07/09 12:30:31;;;;;;;8.53;5.00;;;20.70;1.00;;;;;;5028385;28;20476;-73
2021/07/09 12:33:11;;;;;;;6.60;4.77;;;20.60;1.00;;;;;;5032291;28;20484;-73
2021/07/09 12:35:37;;;;;;;4.30;3.90;;;20.60;1.00;;;;;;5036834;28;20445;-73
2021/07/09 12:38:09;;;;;;;6.70;4.87;;;20.50;1.00;;;;;;5031916;28;20465;-74